ZMUB/ULN METAR and TAF weather

Enter ICAO airport designator
Station Type Date Time Source
ZMUB METAR 2022/06/26 08:00 UTC NOAA

ZMUB 260800Z VRB01MPS 9999 SCT030CB SCT033 18/10 Q1011 NOSIG RMK QFE651.8 60 MOP


Station Type Date Time Source
ZMUB Decoded METAR 2022/06/26 08:00 UTC NOAA

Ulan-Bator, Mongolia (ZMUB) 47-51N 106-46E
Jun 26, 2022 - 04:00 AM EDT / 2022.06.26 0800 UTC
Wind: Variable at 2 MPH (2 KT):0
Visibility: greater than 7 mile(s):0
Sky conditions: partly cloudy
Weather: Cumulonimbus clouds observed
Temperature: 64 F (18 C)
Dew Point: 50 F (10 C)
Relative Humidity: 59%
Pressure (altimeter): 29.85 in. Hg (1011 hPa)
ob: ZMUB 260800Z VRB01MPS 9999 SCT030CB SCT033 18/10 Q1011 NOSIG RMK QFE651.8 60 MOP
cycle: 8

Station Type Date Time Source
ZMUB TAF 2022/06/26 06:45 UTC NOAA

TAF TAF ZMUB 260439Z 2606/2712 VRB02MPS 9999 FEW030CB SCT033 TX21/2607Z TN07/2621Z
TEMPO 2606/2614 VRB08MPS TSRA SCT027CB BKN030

Example: see airport list